Here is the Quick Look data you requested

The Data originates at the National Weather Service, and is made available here by the UAlbany Department of Atmospheric and Environmental Sciences

Surface Observations

KPHL 220554Z 03004KT 10SM FEW120 BKN190 BKN250 27/20 A2988 RMK AO2 SLP116 60000
 T02670200 10339 20267 53009 $=
KTHV 220553Z AUTO 00000KT 10SM CLR 23/21 A2987 RMK AO2 SLP113 60003 T02330206
 10289 20228 56004=
KLNS 220553Z AUTO 00000KT 10SM CLR 24/23 A2988 RMK AO2 SLP114 60004 T02440233
 10322 20244 56002=
KCXY 220556Z AUTO 31004KT 10SM CLR 26/20 A2989 RMK AO2 SLP118 60001 T02560200
 10333 20250 55006=
KMDT 220556Z 00000KT 10SM FEW120 SCT170 OVC220 25/21 A2988 RMK AO2 SLP115 60000
 T02500206 10317 20250 55006=
KMIV 220554Z AUTO 35004KT 10SM FEW060 27/22 A2987 RMK AO2 SLP113 T02670217
 10317 20261 53008=
KTTN 220553Z AUTO 19005KT 10SM CLR 23/22 A2986 RMK AO2 SLP104 60023 T02330222
 10306 20228 50001=
KRDG 220554Z AUTO 19005KT 10SM CLR 24/23 A2987 RMK AO2 RAE06 SLP116 P0000 60003
 T02390228 10328 20233 55008=
KDCA 220552Z 01003KT 10SM BKN150 OVC250 26/21 A2989 RMK AO2 SLP121 60000
 T02610206 10328 20261 58001=
KADW 220556Z AUTO 00000KT 10SM CLR 26/20 A2989 RMK AO2 SLP125 T02620200 10331
 20254 55001 $=
KBWI 220554Z 20004KT 10SM FEW085 BKN200 OVC250 27/21 A2988 RMK AO2 SLP116
 T02670211 10344 20261 56004=
KDMH 220554Z AUTO 27/21 A2988 RMK AO1 SLP118 T02670211 10356 20267 55000=
KFME 220603Z AUTO 00000KT 10SM CLR 22/21 A2991 RMK AO1=
KHGR 220553Z AUTO 18004KT 10SM CLR 23/23 A2991 RMK AO2 SLP132 60081 T02280228
 10306 20228 53003=
KMTN 220603Z AUTO 18003KT 10SM SCT090 27/22 A2989 RMK AO2=
KNHK 220552Z AUTO 25006KT 10SM CLR 26/22 A2989 RMK AO2 SLP122 T02610222 10328
 20250 53004 $=
KOXB 220553Z AUTO 25006KT 10SM CLR 28/24 A2988 RMK AO2 SLP118 T02830239 10328
 20283 53002=
KSBY 220554Z AUTO 23005KT 10SM CLR 27/24 A2989 RMK AO2 SLP121 T02720239 10317
 20272 53003=
KDOV 220556Z AUTO 30004KT 10SM SCT170 27/21 A2988 RMK AO2 SLP121 T02740207
 10329 20269 53004 $=
KGED 220554Z AUTO 25003KT 10SM CLR 29/26 A2988 RMK AO2 SLP118 T02890256 10339
 20289 53003=
KILG 220551Z AUTO 36004KT 10SM SCT070 27/23 A2988 RMK AO2 SLP118 60007
 T02670228 10322 20250 53005 $=